Time;durP1;ratioP1;P1;durP2;ratioP2;P2;SDS_P1;SDS_P2;PMS_P1;PMS_P2;Temp;Humidity;BMP_temperature;BMP_pressure;BME280_temperature;BME280_humidity;BME280_pressure;Samples;Min_cycle;Max_cycle;Signal;HPM_P1;HPM_P2
2022/07/23 00:01:48;;;;;;;3.53;3.03;;;11.90;99.90;;;;;;5053462;28;20025;-69
2022/07/23 00:04:18;;;;;;;5.10;3.78;;;11.90;99.90;;;;;;5053774;28;20033;-71
2022/07/23 00:06:46;;;;;;;6.68;2.60;;;11.90;99.90;;;;;;5053605;28;20028;-70
2022/07/23 00:09:13;;;;;;;2.97;2.25;;;12.00;99.90;;;;;;5053369;28;20034;-69
2022/07/23 00:11:40;;;;;;;2.60;2.08;;;12.00;99.90;;;;;;5053463;28;20021;-69
2022/07/23 00:14:07;;;;;;;2.85;2.08;;;12.00;99.90;;;;;;5053281;28;20546;-69
2022/07/23 00:16:35;;;;;;;4.70;2.10;;;12.10;99.90;;;;;;5053129;28;20108;-69
2022/07/23 00:19:02;;;;;;;3.72;2.10;;;12.10;99.90;;;;;;5053357;28;20086;-70
2022/07/23 00:21:30;;;;;;;3.42;2.20;;;12.10;99.90;;;;;;5052861;28;20056;-70
2022/07/23 00:23:57;;;;;;;3.58;2.10;;;12.20;99.90;;;;;;5053298;28;20026;-69
2022/07/23 00:26:24;;;;;;;4.43;1.90;;;12.30;99.90;;;;;;5053556;28;20017;-70
2022/07/23 00:28:51;;;;;;;6.78;2.13;;;12.40;99.90;;;;;;5053082;28;20474;-70
2022/07/23 00:31:19;;;;;;;7.72;2.00;;;12.40;99.90;;;;;;5053292;28;20022;-70
2022/07/23 00:33:46;;;;;;;3.47;2.22;;;12.40;99.90;;;;;;5053152;28;20490;-69
2022/07/23 00:36:13;;;;;;;4.72;2.28;;;12.40;99.90;;;;;;5053074;28;20120;-69
2022/07/23 00:38:41;;;;;;;3.70;2.38;;;12.50;99.90;;;;;;5053179;28;20033;-70
2022/07/23 00:41:08;;;;;;;8.27;2.15;;;12.50;99.90;;;;;;5053190;28;20021;-69
2022/07/23 00:43:35;;;;;;;5.43;2.35;;;12.60;99.90;;;;;;5053334;28;20531;-70
2022/07/23 00:46:03;;;;;;;4.00;2.30;;;12.60;99.90;;;;;;5053020;28;20025;-70
2022/07/23 00:48:30;;;;;;;5.70;2.42;;;12.70;99.90;;;;;;5053053;28;20060;-70
2022/07/23 00:50:57;;;;;;;3.25;2.08;;;12.70;99.90;;;;;;5053011;28;20029;-70
2022/07/23 00:53:25;;;;;;;3.70;1.67;;;12.70;99.90;;;;;;5051635;28;20045;-69
2022/07/23 00:55:53;;;;;;;3.13;1.30;;;12.70;99.90;;;;;;5053161;28;20026;-70
2022/07/23 00:58:21;;;;;;;1.92;1.42;;;12.70;99.90;;;;;;5052976;28;20057;-69
2022/07/23 01:00:48;;;;;;;1.80;1.42;;;12.70;99.90;;;;;;5053111;28;20048;-69
2022/07/23 01:03:15;;;;;;;4.68;2.08;;;12.80;99.90;;;;;;5052827;28;20044;-69
2022/07/23 01:05:46;;;;;;;2.25;1.45;;;12.80;99.90;;;;;;5052931;28;20071;-69
2022/07/23 01:08:14;;;;;;;1.70;1.30;;;12.80;99.90;;;;;;5052890;28;20061;-70
2022/07/23 01:10:42;;;;;;;1.92;1.23;;;12.80;99.90;;;;;;5053010;28;20373;-70
2022/07/23 01:13:11;;;;;;;1.92;1.30;;;12.90;99.90;;;;;;5052887;28;20025;-69
2022/07/23 01:15:39;;;;;;;3.35;1.10;;;12.80;99.90;;;;;;5052817;28;20020;-69
2022/07/23 01:18:08;;;;;;;2.35;1.30;;;12.80;99.90;;;;;;5052679;28;20021;-70
2022/07/23 01:20:36;;;;;;;1.42;0.70;;;12.80;99.90;;;;;;5052579;28;20025;-69
2022/07/23 01:23:03;;;;;;;1.70;1.08;;;12.80;99.90;;;;;;5052867;28;20036;-71
2022/07/23 01:25:31;;;;;;;1.80;0.90;;;12.80;99.90;;;;;;5052697;28;20513;-70
2022/07/23 01:28:01;;;;;;;1.42;1.10;;;12.90;99.90;;;;;;5052468;28;20041;-70
2022/07/23 01:30:28;;;;;;;1.10;0.85;;;12.90;99.90;;;;;;5052704;28;20086;-70
2022/07/23 01:32:56;;;;;;;3.33;1.08;;;12.90;99.90;;;;;;5052592;28;20021;-70
2022/07/23 01:35:23;;;;;;;2.40;1.08;;;12.90;99.90;;;;;;5054842;28;20382;-70
2022/07/23 01:37:50;;;;;;;2.17;1.08;;;12.90;99.90;;;;;;5054774;28;20505;-70
2022/07/23 01:40:18;;;;;;;1.35;0.68;;;13.00;99.90;;;;;;5056215;28;20017;-69
2022/07/23 01:42:45;;;;;;;3.38;1.25;;;13.00;99.90;;;;;;5056056;28;20033;-70
2022/07/23 01:45:12;;;;;;;2.45;0.90;;;13.00;99.90;;;;;;5056193;28;20032;-71
2022/07/23 01:47:40;;;;;;;0.98;0.60;;;13.00;99.90;;;;;;5056612;28;20124;-70
2022/07/23 01:50:07;;;;;;;2.83;0.73;;;12.90;99.90;;;;;;5056013;28;20084;-70
2022/07/23 01:52:35;;;;;;;0.70;0.70;;;13.00;99.90;;;;;;5056313;28;20024;-70
2022/07/23 01:55:02;;;;;;;4.20;0.93;;;13.00;99.90;;;;;;5055690;28;20021;-70
2022/07/23 01:57:29;;;;;;;1.25;0.73;;;13.10;99.90;;;;;;5055722;28;20021;-70
2022/07/23 01:59:57;;;;;;;1.63;0.80;;;13.10;99.90;;;;;;5055838;28;20032;-71
2022/07/23 02:02:33;;;;;;;1.38;0.70;;;13.20;99.90;;;;;;5055480;28;20048;-70
2022/07/23 02:05:00;;;;;;;1.25;0.73;;;13.20;99.90;;;;;;5055904;28;20021;-70
2022/07/23 02:07:27;;;;;;;3.85;1.60;;;13.30;99.90;;;;;;5055196;28;20040;-70
2022/07/23 02:09:55;;;;;;;2.00;1.20;;;13.30;99.90;;;;;;5055539;28;20032;-71
2022/07/23 02:12:22;;;;;;;1.88;1.20;;;13.40;99.90;;;;;;5055523;28;20027;-71
2022/07/23 02:14:49;;;;;;;1.60;0.73;;;13.40;99.90;;;;;;5055475;28;20021;-71
2022/07/23 02:17:16;;;;;;;2.83;0.55;;;13.40;99.90;;;;;;5055494;28;20474;-71
2022/07/23 02:19:44;;;;;;;4.05;0.90;;;13.50;99.90;;;;;;5054126;28;20029;-71
2022/07/23 02:22:11;;;;;;;1.60;0.90;;;13.50;99.90;;;;;;5055430;28;20086;-70
2022/07/23 02:24:38;;;;;;;1.25;0.90;;;13.40;99.90;;;;;;5056078;28;20048;-71
2022/07/23 02:27:06;;;;;;;3.25;1.30;;;13.40;99.90;;;;;;5055104;28;20496;-70
2022/07/23 02:29:33;;;;;;;2.35;1.15;;;13.30;99.90;;;;;;5055111;28;20492;-70
2022/07/23 02:32:01;;;;;;;1.15;0.60;;;13.30;99.90;;;;;;5055327;28;20078;-70
2022/07/23 02:34:28;;;;;;;1.00;0.55;;;13.20;99.90;;;;;;5055164;28;20025;-71
2022/07/23 02:36:55;;;;;;;1.83;0.90;;;13.20;99.90;;;;;;5053703;28;20024;-71
2022/07/23 02:39:23;;;;;;;3.42;1.02;;;13.20;99.90;;;;;;5054988;28;20427;-70
2022/07/23 02:41:50;;;;;;;2.15;1.05;;;13.20;99.90;;;;;;5055019;28;20064;-70
2022/07/23 02:44:17;;;;;;;2.35;1.13;;;13.20;99.90;;;;;;5054742;28;20043;-70
2022/07/23 02:46:44;;;;;;;2.78;0.80;;;13.20;99.90;;;;;;5054832;28;20036;-70
2022/07/23 02:49:12;;;;;;;1.50;0.90;;;13.20;99.90;;;;;;5054703;28;20079;-70
2022/07/23 02:51:39;;;;;;;2.65;1.00;;;13.30;99.90;;;;;;5054766;28;20032;-70
2022/07/23 02:54:06;;;;;;;1.52;0.70;;;13.30;99.90;;;;;;5054635;28;20025;-70
2022/07/23 02:56:34;;;;;;;2.78;1.00;;;13.30;99.90;;;;;;5054619;28;20110;-70
2022/07/23 02:59:01;;;;;;;1.20;0.70;;;13.20;99.90;;;;;;5054805;28;20028;-70
2022/07/23 03:01:28;;;;;;;0.65;0.55;;;13.20;99.90;;;;;;5054732;28;20028;-70
2022/07/23 03:03:55;;;;;;;1.98;0.95;;;13.20;99.90;;;;;;5054523;28;20111;-70
2022/07/23 03:06:23;;;;;;;2.42;0.82;;;13.20;99.90;;;;;;5054439;28;20036;-70
2022/07/23 03:08:50;;;;;;;1.13;0.80;;;13.20;99.90;;;;;;5054363;28;20037;-70
2022/07/23 03:11:18;;;;;;;2.22;0.70;;;13.20;99.90;;;;;;5054525;28;20021;-71
2022/07/23 03:13:45;;;;;;;1.52;0.75;;;13.20;99.90;;;;;;5054362;28;20036;-70
2022/07/23 03:16:13;;;;;;;1.83;0.60;;;13.20;99.90;;;;;;5054343;28;20039;-70
2022/07/23 03:18:40;;;;;;;1.58;0.55;;;13.20;99.90;;;;;;5054250;28;20025;-70
2022/07/23 03:21:08;;;;;;;2.42;0.70;;;13.20;99.90;;;;;;5054422;28;20104;-71
2022/07/23 03:23:36;;;;;;;1.70;0.68;;;13.20;99.90;;;;;;5054214;28;20029;-72
2022/07/23 03:26:03;;;;;;;0.80;0.60;;;13.30;99.90;;;;;;5054319;28;20351;-72
2022/07/23 03:28:31;;;;;;;2.60;1.00;;;13.30;99.90;;;;;;5054109;28;20043;-71
2022/07/23 03:30:58;;;;;;;1.67;0.80;;;13.40;99.90;;;;;;5054203;28;20025;-71
2022/07/23 03:33:25;;;;;;;1.67;0.70;;;13.50;99.90;;;;;;5054020;28;20025;-72
2022/07/23 03:35:53;;;;;;;2.97;0.57;;;13.50;99.90;;;;;;5052846;28;20024;-72
2022/07/23 03:38:20;;;;;;;3.20;0.75;;;13.60;99.90;;;;;;5053869;28;20025;-70
2022/07/23 03:40:47;;;;;;;0.50;0.38;;;13.60;99.90;;;;;;5053776;28;20017;-70
2022/07/23 03:43:15;;;;;;;0.90;0.70;;;13.70;99.90;;;;;;5054027;28;20390;-70
2022/07/23 03:45:42;;;;;;;1.83;0.73;;;13.70;99.90;;;;;;5053754;28;20052;-71
2022/07/23 03:48:10;;;;;;;3.75;0.98;;;13.70;99.90;;;;;;5053631;28;20466;-70
2022/07/23 03:50:37;;;;;;;1.85;1.00;;;13.70;99.90;;;;;;5053825;28;20195;-71
2022/07/23 03:53:07;;;;;;;1.13;0.63;;;13.80;99.90;;;;;;5053542;28;20032;-70
2022/07/23 03:55:35;;;;;;;1.13;0.85;;;13.70;99.90;;;;;;5053568;28;20029;-70
2022/07/23 03:58:02;;;;;;;2.95;0.60;;;13.60;99.90;;;;;;5053173;28;20031;-70
2022/07/23 04:00:29;;;;;;;1.67;0.60;;;13.50;99.90;;;;;;5053771;28;20021;-70
2022/07/23 04:03:00;;;;;;;4.93;0.60;;;13.40;99.90;;;;;;5053330;28;20095;-71
2022/07/23 04:05:27;;;;;;;1.55;0.90;;;13.30;99.90;;;;;;5053628;28;20021;-70
2022/07/23 04:07:54;;;;;;;1.85;0.98;;;13.30;99.90;;;;;;5053492;28;20021;-70
2022/07/23 04:10:22;;;;;;;4.20;1.17;;;13.30;99.90;;;;;;5053562;28;20039;-70
2022/07/23 04:12:49;;;;;;;1.80;0.75;;;13.30;99.90;;;;;;5053339;28;20078;-71
2022/07/23 04:15:16;;;;;;;3.20;0.65;;;13.30;99.90;;;;;;5053369;28;20055;-72
2022/07/23 04:17:44;;;;;;;3.30;0.95;;;13.30;99.90;;;;;;5053359;28;20033;-71
2022/07/23 04:20:12;;;;;;;1.02;0.93;;;13.20;99.90;;;;;;5053445;28;20057;-70
2022/07/23 04:22:40;;;;;;;1.30;1.00;;;13.20;99.90;;;;;;5053504;28;20017;-70
2022/07/23 04:25:07;;;;;;;3.55;1.02;;;13.20;99.90;;;;;;5053481;28;20023;-71
2022/07/23 04:27:35;;;;;;;2.95;1.33;;;13.30;99.90;;;;;;5053135;28;20032;-70
2022/07/23 04:30:02;;;;;;;3.40;1.05;;;13.20;99.90;;;;;;5053221;28;20330;-71
2022/07/23 04:32:30;;;;;;;1.90;1.50;;;13.30;99.90;;;;;;5053402;28;20021;-72
2022/07/23 04:34:57;;;;;;;1.40;1.10;;;13.30;99.90;;;;;;5053264;28;20056;-72
2022/07/23 04:37:24;;;;;;;1.85;1.42;;;13.40;99.90;;;;;;5053268;28;20022;-72
2022/07/23 04:39:52;;;;;;;2.40;1.13;;;13.50;99.90;;;;;;5053305;28;20025;-72
2022/07/23 04:42:19;;;;;;;3.45;1.40;;;13.60;99.90;;;;;;5053253;28;20041;-72
2022/07/23 04:44:46;;;;;;;1.67;0.65;;;13.70;99.90;;;;;;5053151;28;20530;-72
2022/07/23 04:47:13;;;;;;;0.60;0.60;;;13.80;99.90;;;;;;5052982;28;20025;-72
2022/07/23 04:49:41;;;;;;;3.22;0.60;;;13.70;99.90;;;;;;5053136;28;20041;-70
2022/07/23 04:52:08;;;;;;;0.88;0.30;;;13.70;99.90;;;;;;5052889;28;20025;-72
2022/07/23 04:54:35;;;;;;;0.95;0.38;;;13.60;99.90;;;;;;5052969;28;20065;-70
2022/07/23 04:57:02;;;;;;;1.33;0.55;;;13.60;99.90;;;;;;5052987;28;20098;-69
2022/07/23 04:59:30;;;;;;;0.68;0.40;;;13.50;99.90;;;;;;5052823;28;20374;-69
2022/07/23 05:01:57;;;;;;;0.75;0.40;;;13.40;99.90;;;;;;5052897;28;20056;-70
2022/07/23 05:04:24;;;;;;;1.55;0.50;;;13.30;99.90;;;;;;5051866;28;20029;-70
2022/07/23 05:06:52;;;;;;;1.95;0.90;;;13.30;99.90;;;;;;5053096;28;20483;-71
2022/07/23 05:09:19;;;;;;;2.33;0.85;;;13.30;99.90;;;;;;5056590;28;20187;-69
2022/07/23 05:11:46;;;;;;;2.00;0.60;;;13.30;99.90;;;;;;5057004;28;20116;-70
2022/07/23 05:14:13;;;;;;;1.83;0.70;;;13.40;99.90;;;;;;5056709;28;20025;-71
2022/07/23 05:16:41;;;;;;;2.35;0.70;;;13.40;99.90;;;;;;5056779;28;20029;-69
2022/07/23 05:19:08;;;;;;;1.77;0.88;;;13.50;99.90;;;;;;5056503;28;20445;-69
2022/07/23 05:21:35;;;;;;;1.50;0.47;;;13.50;99.90;;;;;;5056756;28;20025;-69
2022/07/23 05:24:03;;;;;;;0.25;0.25;;;13.60;99.90;;;;;;5056748;28;20071;-69
2022/07/23 05:26:30;;;;;;;0.75;0.35;;;13.60;99.90;;;;;;5056341;28;20359;-69
2022/07/23 05:28:57;;;;;;;1.05;0.30;;;13.60;99.90;;;;;;5056490;28;20040;-70
2022/07/23 05:31:25;;;;;;;0.85;0.40;;;13.60;99.90;;;;;;5056799;28;20378;-69
2022/07/23 05:33:52;;;;;;;2.67;0.45;;;13.60;99.90;;;;;;5054972;28;20021;-70
2022/07/23 05:36:19;;;;;;;0.50;0.20;;;13.50;99.90;;;;;;5056215;28;20029;-70
2022/07/23 05:38:46;;;;;;;0.80;0.35;;;13.40;99.90;;;;;;5056203;28;20100;-69
2022/07/23 05:41:14;;;;;;;1.25;0.82;;;13.30;99.90;;;;;;5056259;28;20021;-70
2022/07/23 05:43:41;;;;;;;1.00;0.55;;;13.30;99.90;;;;;;5056243;28;20104;-70
2022/07/23 05:46:11;;;;;;;1.23;0.40;;;13.30;99.90;;;;;;5056149;28;20102;-71
2022/07/23 05:48:39;;;;;;;0.40;0.40;;;13.30;99.90;;;;;;5056126;28;20478;-72
2022/07/23 05:51:06;;;;;;;1.17;0.40;;;13.20;99.90;;;;;;5056021;28;20024;-70
2022/07/23 05:53:34;;;;;;;0.50;0.20;;;13.20;99.90;;;;;;5056025;28;20049;-70
2022/07/23 05:56:02;;;;;;;1.75;0.47;;;13.20;99.90;;;;;;5055983;28;20099;-70
2022/07/23 05:58:32;;;;;;;1.27;0.50;;;13.20;99.90;;;;;;5055918;28;20048;-70
2022/07/23 06:00:59;;;;;;;0.40;0.40;;;13.20;99.90;;;;;;5055894;28;20025;-70
2022/07/23 06:03:27;;;;;;;0.35;0.35;;;13.20;99.90;;;;;;5055580;28;20056;-70
2022/07/23 06:05:54;;;;;;;0.77;0.30;;;13.20;99.90;;;;;;5055638;28;20147;-70
2022/07/23 06:08:21;;;;;;;0.90;0.40;;;13.20;99.90;;;;;;5055548;28;20037;-70
2022/07/23 06:10:48;;;;;;;0.77;0.63;;;13.20;99.90;;;;;;5055792;28;20028;-70
2022/07/23 06:13:19;;;;;;;0.32;0.30;;;13.10;99.90;;;;;;5055796;28;20024;-70
2022/07/23 06:15:46;;;;;;;1.48;0.60;;;13.20;99.90;;;;;;5055519;28;20021;-70
2022/07/23 06:18:13;;;;;;;0.75;0.60;;;13.10;99.90;;;;;;5055412;28;20029;-70
2022/07/23 06:20:41;;;;;;;1.70;0.55;;;13.10;99.90;;;;;;5054880;28;20032;-71
2022/07/23 06:23:08;;;;;;;1.00;0.60;;;13.10;99.90;;;;;;5055413;28;20104;-70
2022/07/23 06:25:35;;;;;;;1.05;0.93;;;13.10;99.90;;;;;;5055350;28;20063;-70
2022/07/23 06:28:03;;;;;;;3.15;1.98;;;13.10;99.90;;;;;;5054964;28;20032;-70
2022/07/23 06:30:30;;;;;;;3.58;2.47;;;13.10;99.90;;;;;;5055186;28;20496;-70
2022/07/23 06:32:57;;;;;;;3.90;2.30;;;13.10;99.90;;;;;;5055274;28;20109;-70
2022/07/23 06:35:25;;;;;;;2.55;2.30;;;13.00;99.90;;;;;;5055180;28;20060;-70
2022/07/23 06:37:52;;;;;;;4.30;2.30;;;13.00;99.90;;;;;;5055176;28;20025;-71
2022/07/23 06:40:20;;;;;;;3.78;1.70;;;13.00;99.90;;;;;;5054989;28;20496;-70
2022/07/23 06:42:47;;;;;;;2.17;1.98;;;12.90;99.90;;;;;;5055088;28;20100;-70
2022/07/23 06:45:14;;;;;;;5.07;3.78;;;12.90;99.90;;;;;;5055502;28;20029;-71
2022/07/23 06:47:42;;;;;;;4.90;2.90;;;12.90;99.90;;;;;;5054862;28;20482;-71
2022/07/23 06:50:10;;;;;;;6.28;3.60;;;12.90;99.90;;;;;;5055085;28;20061;-71
2022/07/23 06:52:37;;;;;;;5.03;3.30;;;12.80;99.90;;;;;;5054863;28;20025;-71
2022/07/23 06:55:05;;;;;;;5.35;3.70;;;12.80;99.90;;;;;;5054572;28;20032;-71
2022/07/23 06:57:32;;;;;;;2.80;2.17;;;12.80;99.90;;;;;;5054561;28;20024;-71
2022/07/23 07:00:00;;;;;;;3.75;2.90;;;12.80;99.90;;;;;;5054577;28;20363;-69
2022/07/23 07:02:27;;;;;;;3.45;2.65;;;12.80;99.90;;;;;;5054279;28;20055;-70
2022/07/23 07:04:56;;;;;;;4.55;2.97;;;12.80;99.90;;;;;;5054720;28;20385;-70
2022/07/23 07:07:26;;;;;;;5.43;3.80;;;12.70;99.90;;;;;;5054323;28;20126;-70
2022/07/23 07:09:53;;;;;;;4.65;4.07;;;12.80;99.90;;;;;;5054306;28;20481;-71
2022/07/23 07:12:20;;;;;;;4.88;3.80;;;12.80;99.90;;;;;;5053051;28;20028;-71
2022/07/23 07:14:48;;;;;;;5.20;3.80;;;12.80;99.90;;;;;;5054276;28;20025;-71
2022/07/23 07:17:15;;;;;;;4.82;3.53;;;12.70;99.90;;;;;;5054244;28;20013;-71
2022/07/23 07:19:45;;;;;;;6.13;3.38;;;12.80;99.90;;;;;;5054174;28;20411;-71
2022/07/23 07:22:13;;;;;;;3.67;3.28;;;12.80;99.90;;;;;;5053319;28;20051;-70
2022/07/23 07:24:40;;;;;;;4.18;3.78;;;12.80;99.90;;;;;;5054221;28;20017;-72
2022/07/23 07:27:07;;;;;;;5.50;4.30;;;12.80;99.90;;;;;;5054165;28;20029;-71
2022/07/23 07:29:35;;;;;;;4.43;4.00;;;12.70;99.90;;;;;;5054139;28;20033;-70
2022/07/23 07:32:05;;;;;;;4.30;3.90;;;12.70;99.90;;;;;;5053324;28;20013;-71
2022/07/23 07:34:32;;;;;;;5.00;4.35;;;12.70;99.90;;;;;;5054003;28;20083;-72
2022/07/23 07:36:59;;;;;;;4.13;3.50;;;12.70;99.90;;;;;;5052642;28;20017;-71
2022/07/23 07:39:27;;;;;;;5.35;4.85;;;12.60;99.90;;;;;;5053831;28;20025;-71
2022/07/23 07:41:54;;;;;;;4.70;4.15;;;12.60;99.90;;;;;;5053941;28;20028;-70
2022/07/23 07:44:21;;;;;;;6.32;4.97;;;12.60;99.90;;;;;;5054018;28;20032;-70
2022/07/23 07:46:49;;;;;;;5.47;4.53;;;12.60;99.90;;;;;;5053835;28;20029;-70
2022/07/23 07:49:19;;;;;;;6.47;4.82;;;12.60;99.90;;;;;;5052486;28;20029;-71
2022/07/23 07:51:46;;;;;;;9.93;7.25;;;12.60;99.90;;;;;;5053647;28;20098;-71
2022/07/23 07:54:14;;;;;;;10.45;8.23;;;12.60;99.90;;;;;;5053586;28;20029;-70
2022/07/23 07:56:41;;;;;;;7.85;7.05;;;12.60;99.90;;;;;;5053561;28;20029;-70
2022/07/23 07:59:08;;;;;;;11.93;8.60;;;12.60;99.90;;;;;;5053666;28;20481;-71
2022/07/23 08:01:36;;;;;;;14.93;9.85;;;12.60;99.90;;;;;;5053563;28;20450;-70
2022/07/23 08:04:03;;;;;;;10.25;9.25;;;12.50;99.90;;;;;;5053475;28;20037;-70
2022/07/23 08:06:30;;;;;;;15.75;11.35;;;12.60;99.90;;;;;;5053534;28;20024;-71
2022/07/23 08:08:58;;;;;;;12.00;10.07;;;12.50;99.90;;;;;;5053393;28;20041;-71
2022/07/23 08:11:25;;;;;;;11.52;10.32;;;12.50;99.90;;;;;;5053459;28;20458;-70
2022/07/23 08:13:52;;;;;;;15.90;12.32;;;12.50;99.90;;;;;;5053248;28;20036;-70
2022/07/23 08:16:20;;;;;;;17.02;15.20;;;12.60;99.90;;;;;;5053498;28;20025;-71
2022/07/23 08:18:47;;;;;;;17.00;14.88;;;12.50;99.90;;;;;;5053397;28;20370;-70
2022/07/23 08:21:14;;;;;;;15.23;13.45;;;12.50;99.90;;;;;;5053422;28;20437;-71
2022/07/23 08:23:45;;;;;;;17.63;14.75;;;12.50;99.90;;;;;;5053447;28;20099;-70
2022/07/23 08:26:12;;;;;;;20.00;14.10;;;12.50;99.90;;;;;;5053408;28;20083;-71
2022/07/23 08:28:40;;;;;;;16.05;12.20;;;12.50;99.90;;;;;;5051774;28;20405;-71
2022/07/23 08:31:07;;;;;;;19.85;15.75;;;12.40;99.90;;;;;;5053771;28;20021;-71
2022/07/23 08:33:34;;;;;;;19.10;14.93;;;12.40;99.90;;;;;;5053050;28;20065;-70
2022/07/23 08:36:04;;;;;;;18.98;16.13;;;12.40;99.90;;;;;;5053209;28;20090;-70
2022/07/23 08:38:32;;;;;;;18.60;15.60;;;12.40;99.90;;;;;;5053399;28;20146;-70
2022/07/23 08:40:59;;;;;;;25.17;14.60;;;12.40;99.90;;;;;;5053224;28;20522;-71
2022/07/23 08:43:29;;;;;;;19.65;13.27;;;12.40;99.90;;;;;;5055804;28;20028;-71
2022/07/23 08:45:59;;;;;;;18.38;13.45;;;12.40;99.90;;;;;;5057234;28;20013;-70
2022/07/23 08:48:28;;;;;;;26.85;14.95;;;12.40;99.90;;;;;;5056988;28;20570;-70
2022/07/23 08:50:58;;;;;;;25.30;13.43;;;12.40;99.90;;;;;;5055948;28;20025;-71
2022/07/23 08:53:27;;;;;;;23.05;14.55;;;12.40;99.90;;;;;;5056884;28;20536;-70
2022/07/23 08:55:57;;;;;;;17.85;13.23;;;12.40;99.90;;;;;;5057372;28;20025;-70
2022/07/23 08:58:25;;;;;;;18.08;13.02;;;12.40;99.90;;;;;;5056957;28;20102;-70
2022/07/23 09:00:52;;;;;;;20.88;15.10;;;12.40;99.90;;;;;;5057096;28;20064;-71
2022/07/23 09:03:22;;;;;;;41.30;15.70;;;12.30;99.90;;;;;;5056800;28;20052;-71
2022/07/23 09:05:55;;;;;;;21.42;16.35;;;12.30;99.90;;;;;;5056774;28;20037;-71
2022/07/23 09:08:24;;;;;;;22.92;15.00;;;12.30;99.90;;;;;;5056900;28;20044;-70
2022/07/23 09:10:52;;;;;;;22.40;15.88;;;12.40;99.90;;;;;;5056746;28;20028;-70
2022/07/23 09:13:45;;;;;;;19.33;15.18;;;12.40;99.90;;;;;;5056765;28;20559;-70
2022/07/23 09:16:18;;;;;;;22.40;16.40;;;12.40;99.90;;;;;;5056828;28;20466;-71
2022/07/23 09:18:47;;;;;;;17.35;13.68;;;12.40;99.90;;;;;;5056783;28;20378;-70
2022/07/23 09:21:29;;;;;;;17.60;13.75;;;12.40;99.90;;;;;;5056606;28;20045;-70
2022/07/23 09:24:11;;;;;;;18.98;12.98;;;12.40;99.90;;;;;;5056478;28;20057;-71
2022/07/23 09:26:39;;;;;;;38.42;13.20;;;12.40;99.90;;;;;;5056348;28;20405;-70
2022/07/23 09:29:10;;;;;;;36.15;13.85;;;12.40;99.90;;;;;;5056335;28;20542;-71
2022/07/23 09:31:44;;;;;;;29.23;11.23;;;12.40;99.90;;;;;;5056566;28;20036;-70
2022/07/23 09:34:32;;;;;;;16.33;12.57;;;12.30;99.90;;;;;;5056195;28;20033;-71
2022/07/23 09:37:17;;;;;;;17.67;11.35;;;12.30;99.90;;;;;;5056211;28;20018;-70
2022/07/23 09:39:46;;;;;;;17.08;10.77;;;12.30;99.90;;;;;;5056240;28;20103;-71
2022/07/23 09:42:17;;;;;;;16.75;11.70;;;12.30;99.90;;;;;;5056587;28;20025;-71
2022/07/23 09:44:50;;;;;;;19.02;11.73;;;12.20;99.90;;;;;;5056104;28;20056;-70
2022/07/23 09:47:22;;;;;;;19.95;13.82;;;12.20;99.90;;;;;;5056287;28;20032;-71
2022/07/23 09:50:20;;;;;;;15.77;12.57;;;12.20;99.90;;;;;;5055874;28;20116;-70
2022/07/23 09:52:49;;;;;;;35.47;15.40;;;12.20;99.90;;;;;;5040494;28;20547;-71
2022/07/23 09:55:19;;;;;;;37.17;15.20;;;12.20;99.90;;;;;;5054778;28;20032;-70
2022/07/23 09:57:53;;;;;;;25.70;15.68;;;12.10;99.90;;;;;;5056012;28;20017;-71
2022/07/23 10:00:20;;;;;;;25.50;16.13;;;12.10;99.90;;;;;;5055986;28;20188;-72
2022/07/23 10:02:49;;;;;;;23.90;13.82;;;12.10;99.90;;;;;;5055829;28;20037;-71
2022/07/23 10:05:17;;;;;;;26.65;15.57;;;12.00;99.90;;;;;;5055730;28;20021;-70
2022/07/23 10:07:46;;;;;;;33.28;14.68;;;12.00;99.90;;;;;;5055511;28;20025;-70
2022/07/23 10:10:15;;;;;;;44.47;15.15;;;12.00;99.90;;;;;;5055453;28;20029;-71
2022/07/23 10:15:19;;;;;;;24.80;15.48;;;12.00;99.90;;;;;;5055494;28;20025;-71
2022/07/23 10:17:48;;;;;;;33.60;16.83;;;11.90;99.90;;;;;;5055519;28;20021;-71
2022/07/23 10:20:15;;;;;;;22.63;15.70;;;11.90;99.90;;;;;;5055524;28;20028;-70
2022/07/23 10:22:54;;;;;;;23.85;14.23;;;11.90;99.90;;;;;;5055408;28;20103;-71
2022/07/23 10:25:34;;;;;;;20.58;15.02;;;11.90;99.90;;;;;;5055594;28;20036;-71
2022/07/23 10:28:22;;;;;;;40.58;16.70;;;11.80;99.90;;;;;;5055754;28;20500;-71
2022/07/23 10:31:10;;;;;;;20.30;15.95;;;11.80;99.90;;;;;;5055666;28;20036;-70
2022/07/23 10:34:02;;;;;;;18.33;14.95;;;11.80;99.90;;;;;;5055234;28;20500;-70
2022/07/23 10:36:36;;;;;;;31.48;20.35;;;11.80;99.90;;;;;;5055034;28;20033;-70
2022/07/23 10:39:14;;;;;;;25.10;19.10;;;11.70;99.90;;;;;;5055132;28;20100;-70
2022/07/23 10:41:42;;;;;;;24.00;17.25;;;11.80;99.90;;;;;;5055102;28;20025;-70
2022/07/23 10:44:19;;;;;;;19.92;14.35;;;11.80;99.90;;;;;;5054892;28;20018;-71
2022/07/23 10:47:10;;;;;;;20.30;13.20;;;11.80;99.90;;;;;;5055107;28;20059;-70
2022/07/23 10:49:39;;;;;;;22.98;15.80;;;11.80;99.90;;;;;;5054964;28;20477;-71
2022/07/23 10:52:15;;;;;;;19.95;14.70;;;11.80;99.90;;;;;;5054922;28;20036;-71
2022/07/23 10:54:50;;;;;;;19.30;13.88;;;11.80;99.90;;;;;;5054543;28;20032;-73
2022/07/23 10:57:23;;;;;;;17.50;12.05;;;11.70;99.90;;;;;;5054666;28;20020;-73
2022/07/23 11:02:34;;;;;;;122.50;19.42;;;11.70;99.90;;;;;;5054515;28;20148;-71
2022/07/23 11:05:06;;;;;;;38.25;16.48;;;11.70;99.90;;;;;;5054836;28;20021;-70
2022/07/23 11:07:35;;;;;;;62.05;21.80;;;11.70;99.90;;;;;;5054358;28;20104;-71
2022/07/23 11:10:03;;;;;;;38.25;16.83;;;11.70;99.90;;;;;;5054797;28;20033;-70
2022/07/23 11:12:30;;;;;;;43.53;14.70;;;11.60;99.90;;;;;;5053205;28;20025;-71
2022/07/23 11:15:08;;;;;;;54.38;15.38;;;11.60;99.90;;;;;;5054440;28;20044;-70
2022/07/23 11:17:47;;;;;;;28.15;12.82;;;11.60;99.90;;;;;;5054451;28;20458;-70
2022/07/23 11:20:24;;;;;;;20.00;13.02;;;11.60;99.90;;;;;;5054331;28;20029;-73
2022/07/23 11:22:55;;;;;;;18.73;11.80;;;11.50;99.90;;;;;;5054359;28;20021;-72
2022/07/23 11:25:25;;;;;;;18.95;12.65;;;11.50;99.90;;;;;;5054073;28;20028;-71
2022/07/23 11:28:08;;;;;;;20.25;12.18;;;11.50;99.90;;;;;;5054123;28;20025;-70
2022/07/23 11:30:41;;;;;;;19.40;10.88;;;11.40;99.90;;;;;;5054145;28;20028;-70
2022/07/23 11:33:08;;;;;;;17.85;11.93;;;11.40;99.90;;;;;;5054070;28;20017;-70
2022/07/23 11:35:39;;;;;;;14.98;10.85;;;11.40;99.90;;;;;;5053773;28;20033;-70
2022/07/23 11:38:17;;;;;;;12.52;10.50;;;11.40;99.90;;;;;;5053962;28;20031;-71
2022/07/23 11:40:56;;;;;;;19.52;11.82;;;11.40;99.90;;;;;;5053951;28;20021;-70
2022/07/23 11:43:23;;;;;;;15.50;11.48;;;11.30;99.90;;;;;;5054264;28;20100;-70
2022/07/23 11:46:00;;;;;;;10.98;9.05;;;11.30;99.90;;;;;;5053670;28;20021;-70
2022/07/23 11:48:32;;;;;;;15.23;9.93;;;11.30;99.90;;;;;;5053813;28;20059;-70
2022/07/23 11:50:59;;;;;;;14.43;10.40;;;11.20;99.90;;;;;;5053952;28;20017;-70
2022/07/23 11:53:33;;;;;;;13.70;10.15;;;11.20;99.90;;;;;;5053667;28;20486;-70
2022/07/23 11:56:09;;;;;;;13.45;9.98;;;11.20;99.90;;;;;;5053763;28;20066;-70
2022/07/23 11:58:38;;;;;;;13.35;10.98;;;11.20;99.90;;;;;;5053718;28;20086;-70
2022/07/23 12:01:06;;;;;;;18.95;11.63;;;11.10;99.90;;;;;;5053863;28;20021;-71
2022/07/23 12:03:34;;;;;;;20.23;13.88;;;11.10;99.90;;;;;;5053433;28;20067;-70
2022/07/23 12:06:02;;;;;;;18.63;12.90;;;11.10;99.90;;;;;;5053597;28;20047;-70
2022/07/23 12:08:30;;;;;;;18.60;12.70;;;11.10;99.90;;;;;;5053562;28;20444;-71
2022/07/23 12:10:57;;;;;;;17.65;12.95;;;11.10;99.90;;;;;;5053516;28;20017;-70
2022/07/23 12:13:25;;;;;;;14.43;11.50;;;11.10;99.90;;;;;;5051937;28;20029;-70
2022/07/23 12:15:56;;;;;;;17.02;13.68;;;11.10;99.90;;;;;;5053467;28;20428;-70
2022/07/23 12:18:26;;;;;;;17.38;13.20;;;11.10;99.90;;;;;;5052788;28;20381;-70
2022/07/23 12:21:00;;;;;;;23.30;14.95;;;11.10;99.90;;;;;;5053425;28;20033;-71
2022/07/23 12:23:31;;;;;;;21.38;14.25;;;11.10;99.90;;;;;;5053766;28;20074;-70
2022/07/23 12:26:06;;;;;;;18.05;12.65;;;11.10;99.90;;;;;;5053413;28;20025;-70
2022/07/23 12:28:37;;;;;;;21.05;13.05;;;11.10;99.90;;;;;;5053111;28;20161;-70
2022/07/23 12:31:05;;;;;;;37.78;14.20;;;11.10;99.90;;;;;;5053238;28;20039;-70
2022/07/23 12:33:35;;;;;;;15.93;11.07;;;11.10;99.90;;;;;;5053132;28;20021;-71
2022/07/23 12:36:09;;;;;;;21.88;12.13;;;11.10;99.90;;;;;;5053200;28;20025;-71
2022/07/23 12:38:48;;;;;;;14.35;10.25;;;11.10;99.90;;;;;;5053233;28;20021;-71
2022/07/23 12:41:16;;;;;;;27.45;11.23;;;11.10;99.90;;;;;;5051834;28;20028;-72
2022/07/23 12:43:50;;;;;;;49.03;13.82;;;11.10;99.90;;;;;;5053211;28;20025;-70
2022/07/23 12:46:20;;;;;;;27.90;12.82;;;11.10;99.90;;;;;;5053228;28;20026;-70
2022/07/23 12:48:52;;;;;;;36.53;14.02;;;11.10;99.90;;;;;;5053198;28;20068;-70
2022/07/23 12:51:26;;;;;;;22.73;13.10;;;11.10;99.90;;;;;;5053266;28;20040;-70
2022/07/23 12:53:56;;;;;;;21.20;12.30;;;11.10;99.90;;;;;;5051704;28;20021;-70
2022/07/23 12:56:35;;;;;;;23.40;12.05;;;11.10;99.90;;;;;;5053116;28;20092;-70